turkturk847 Games - Total: 1075
1 2
Rank Song Name Score PGAMB Combo Time
6,041 Can Can (Piano Version) [SR] 651,885 467 - 161 - 14 - 9 - 11 353 2025-04-11 11:40:28
11,657 Hungarian Dance No. 5 [FC] [PB] 848,285 476 - 85 - 2 - 0 - 0 563 2025-04-11 11:38:02
6,431 Hungarian Dance No. 7 [SR] 556,170 382 - 115 - 7 - 6 - 4 316 2025-04-11 11:35:34
52 Mantle In The Dark [SR] 626,055 381 - 72 - 7 - 2 - 3 397 2025-04-11 11:32:54
1,996 Doppelganger [SR] 242,570 277 - 87 - 9 - 44 - 28 80 2025-04-11 11:31:17
13,155 Speed Limit 38 [SR] 368,655 224 - 16 - 1 - 0 - 0 241 2025-04-11 11:28:52
14,431 Vijore [SR] 230,210 157 - 6 - 0 - 9 - 0 145 2025-04-11 11:27:57
13,644 {Adrenaline Pumper} [SR] 69,530 35 - 12 - 0 - 0 - 1 47 2025-04-11 11:26:38
8,031 Cruel Whole (Abelcain Remix) [SR] 1,319,425 794 - 73 - 0 - 1 - 2 863 2025-04-11 11:25:50
26,055 That is Fair [SR] 296,255 175 - 19 - 2 - 1 - 1 195 2025-04-11 11:22:26
6,044 Hanabi [FC] [SR] 1,471,025 827 - 146 - 3 - 0 - 7 976 2025-04-11 11:21:17
53,484 Goodbye, My Love [SR] 83,600 49 - 6 - 0 - 0 - 0 55 2025-04-11 11:18:52
1,684 Makiba [PB] 1,146,685 1,263 - 259 - 8 - 17 - 18 386 2025-04-11 11:16:23
3,199 Makiba 157,600 130 - 48 - 4 - 4 - 4 74 2025-04-11 11:13:41
3,443 Makiba 67,505 27 - 16 - 5 - 0 - 1 48 2025-04-11 11:13:18
26,089 Fantranstic [SR] 181,700 109 - 10 - 0 - 0 - 0 119 2025-04-11 03:50:36
5,675 {Red Alert} [FC] [PB] 746,445 419 - 72 - 5 - 0 - 4 496 2025-04-11 03:49:41
35,060 {Red Alert} [SR] 5,760 5 - 0 - 0 - 3 - 3 4 2025-04-11 03:48:23
15,608 Video Out A [SR] 46,345 35 - 5 - 0 - 4 - 2 27 2025-04-11 03:48:07
3,832 Turkish March [PB] 753,755 828 - 198 - 21 - 9 - 23 246 2025-04-11 03:47:16
6,251 Evil Approaches [SR] 867,175 624 - 132 - 25 - 2 - 4 487 2025-04-11 03:45:02
4,665 Yakusoku -HappyHyperStarmiX- [SR] 943,770 966 - 267 - 17 - 5 - 17 340 2025-04-11 03:42:27
1,433 Hello (BPM) 2021 1,550 1 - 0 - 0 - 0 - 0 1 2025-04-11 03:37:14
1,091 Hello (BPM) 2021 207,250 267 - 230 - 18 - 318 - 13 95 2025-04-11 03:36:51
1,913 Makiba [PB] 1,088,730 1,093 - 260 - 44 - 16 - 19 419 2025-04-11 03:35:05
439 Farting Around [FC] 357,240 198 - 37 - 3 - 0 - 0 238 2025-04-11 02:44:00
834 Farting Around 13,200 11 - 10 - 0 - 24 - 8 12 2025-04-11 02:42:59
884 Farting Around 0 0 - 0 - 0 - 6 - 4 0 2025-04-11 02:42:42
3,203 Makiba 89,910 119 - 111 - 29 - 90 - 88 22 2025-04-11 02:42:11
2,015 Makiba [PB] 1,217,675 985 - 249 - 20 - 35 - 40 618 2025-04-11 02:41:17
3,567 Makiba 705 1 - 5 - 0 - 10 - 6 2 2025-04-11 01:34:31
3,567 Makiba 685 1 - 5 - 0 - 10 - 7 2 2025-04-11 01:34:22
3,556 Makiba 5,915 3 - 9 - 0 - 13 - 9 6 2025-04-11 01:34:14
3,342 Makiba [PB] 46,145 57 - 52 - 7 - 65 - 37 21 2025-04-11 01:33:50
10,839 morning grory [SR] 191,665 168 - 76 - 1 - 11 - 14 82 2025-04-11 01:32:40
5,227 Control [FC] [PB] 37,165 17 - 6 - 3 - 0 - 0 26 2025-04-11 01:29:51
5,376 Control [SR] 27,320 16 - 8 - 0 - 2 - 3 17 2025-04-11 01:28:49
1,019 Altale [Light] [PB] 88,200 74 - 23 - 9 - 4 - 4 42 2025-04-11 01:26:38
1,071 Altale [Light] [SR] 72,705 64 - 30 - 7 - 9 - 17 32 2025-04-11 01:24:23
67,295 Hungarian Dance No. 5 156,350 124 - 39 - 1 - 11 - 11 81 2025-04-11 01:20:47
11,012 Experiment [SR] 47,380 42 - 52 - 0 - 34 - 24 21 2025-04-11 01:17:24
430 Farting Around [SR] 351,570 202 - 33 - 1 - 2 - 2 232 2025-04-11 01:15:24
3,342 Makiba [SR] 85,175 64 - 7 - 0 - 3 - 1 49 2025-04-10 12:55:58
9,719 Delirium [SR] 842,545 883 - 180 - 1 - 14 - 16 312 2025-04-10 12:51:42
27,945 Sky Dive [PB] 375,225 275 - 44 - 7 - 1 - 10 212 2025-04-10 12:48:26
40,207 Sky Dive [SR] 16,730 10 - 2 - 6 - 5 - 5 12 2025-04-10 12:46:47
1,343 Altale [Heavy] [SR] 270,635 130 - 57 - 20 - 2 - 1 183 2025-04-10 12:44:32
491 Hello (BPM) 2021 673,540 1,052 - 913 - 105 - 683 - 59 51 2024-09-28 12:17:35
16,458 600 AD in Piano [SR] 1,132,715 671 - 254 - 63 - 5 - 5 692 2024-09-28 12:14:11
11,589 Frozen Fire [SR] 409,245 377 - 227 - 74 - 14 - 13 140 2024-09-28 12:10:29
40,576 Frozen Fire [SR] 0 1 - 2 - 1 - 13 - 1 2 2024-09-28 12:08:39
470 Hello (BPM) 2021 [PB] 770,630 1,087 - 937 - 107 - 622 - 98 104 2024-06-12 08:51:43
14,613 Euro Freak [SR] 166,080 121 - 137 - 107 - 27 - 33 65 2024-06-12 08:49:12
263 Life :: Acceleration [SR] 96,595 54 - 77 - 56 - 22 - 27 50 2024-06-12 08:47:12
42,808 World of Dreams [SR] 183,785 107 - 38 - 9 - 3 - 4 115 2024-05-14 07:25:04
435 Once Upon a Time in Transylvania [SR] 164,010 118 - 59 - 7 - 8 - 1 85 2024-05-14 07:24:29
17,218 Hyper Hyper -Definitive Version- [SR] 637,605 399 - 280 - 83 - 7 - 12 339 2024-05-14 07:23:45
10,688 ReRicked [SR] 319,675 217 - 131 - 48 - 4 - 5 163 2024-05-14 07:21:16
1,106 Jingle Bells (Bass) [SR] 569,785 434 - 174 - 47 - 7 - 9 283 2024-04-22 12:14:16
2,272 Beep Beep I'm a Sheep [SR] 83,930 88 - 36 - 4 - 11 - 9 29 2024-04-18 08:19:28
470 Hello (BPM) 2021 [SR] 655,835 1,010 - 918 - 115 - 710 - 67 63 2024-04-06 08:21:56
128 Speedcore 300 [SR] 142,445 151 - 134 - 61 - 87 - 42 47 2024-04-06 08:18:59
165 Boxel Adventure [SR] 506,720 684 - 536 - 218 - 321 - 168 74 2024-04-06 08:17:17
2,671 Go Beyond!! -Jazzy mix- [SR] 86,420 84 - 80 - 34 - 33 - 21 27 2024-04-06 08:14:57
1,524 At The Speed Of Light [SR] 2,550 0 - 2 - 0 - 0 - 0 2 2024-04-06 08:13:26
578 Poison AND/OR Affection [SR] 421,305 472 - 440 - 247 - 106 - 101 62 2024-04-06 08:11:54
7,160 Turkish March [SR] 540,180 568 - 316 - 124 - 48 - 53 150 2024-04-06 08:08:19
1,349 Kronos [SR] 360,195 342 - 276 - 113 - 36 - 43 102 2024-04-06 08:04:37
2,804 Clockwork Gearman [SR] 319,905 216 - 189 - 80 - 13 - 12 149 2024-04-06 08:01:55
1,113 The Big Black [SR] 411,605 264 - 294 - 135 - 29 - 44 188 2024-04-06 07:59:16
26,253 Mario Eurobeat [PB] 389,865 233 - 114 - 25 - 3 - 4 230 2024-04-06 07:55:32
60,899 Mario Eurobeat [SR] 63,865 20 - 34 - 51 - 13 - 13 45 2024-04-06 07:54:13
48,087 Hungarian Dance No. 5 [SR] 363,050 279 - 196 - 80 - 8 - 11 154 2024-04-06 07:52:34
10,337 XP Startup Theme [SR] 179,295 107 - 97 - 56 - 7 - 7 93 2024-04-06 07:49:03
12,226 XP Startup Theme [SR] 2,090 0 - 1 - 1 - 0 - 12 2 2024-04-06 07:47:19
1 2